Terminal Aerodrome Forecast
Issued by NWS

Home | Current Version | Previous Version | Text Only | Print | Product List | Glossary On
Versions: 1 2 3 4 5 6 7 8 9 10 11 12 13 14
000
FTUS43 KFGF 231720
TAFBJI
TAF
KBJI 231720Z 2318/2418 31020G28KT P6SM VCSH BKN015
      TEMPO 2318/2320 -RA
     FM232000 31020G28KT P6SM BKN060
     FM240300 33017KT P6SM BKN025
     FM240900 32019G27KT P6SM BKN035=

USA.gov is the U.S. government's official web portal to all federal, state and local government web resources and services.